Time;durP1;ratioP1;P1;durP2;ratioP2;P2;SDS_P1;SDS_P2;PMS_P1;PMS_P2;Temp;Humidity;BMP_temperature;BMP_pressure;BME280_temperature;BME280_humidity;BME280_pressure;Samples;Min_cycle;Max_cycle;Signal;HPM_P1;HPM_P2
2022/06/30 00:00:31;;;;;;;1.52;1.37;;;15.90;1.40;;;17.40;100.00;95089.24;647989;212;31545;-78
2022/06/30 00:03:14;;;;;;;3.55;2.10;;;15.80;1.40;;;17.43;100.00;95091.59;619743;226;31965;-78
2022/06/30 00:05:56;;;;;;;2.45;2.12;;;15.80;1.40;;;17.21;100.00;95095.30;619562;226;31860;-77
2022/06/30 00:08:38;;;;;;;3.42;2.58;;;15.60;1.40;;;16.94;100.00;95095.74;647007;216;31521;-77
2022/06/30 00:11:23;;;;;;;1.30;1.20;;;15.60;1.40;;;16.85;100.00;95092.53;620434;222;32076;-77
2022/06/30 00:14:06;;;;;;;2.70;2.17;;;15.60;1.40;;;16.82;100.00;95086.28;618869;226;32093;-80
2022/06/30 00:16:50;;;;;;;2.67;2.03;;;15.60;1.40;;;16.87;100.00;95085.80;648420;216;31939;-77
2022/06/30 00:19:38;;;;;;;1.92;1.40;;;15.60;1.40;;;16.91;100.00;95086.92;647996;212;31478;-80
2022/06/30 00:22:25;;;;;;;2.35;2.15;;;15.60;1.40;;;16.92;100.00;95081.86;646184;216;31541;-77
2022/06/30 00:25:07;;;;;;;2.30;1.80;;;15.50;1.40;;;16.89;100.00;95078.86;620220;226;31850;-79
2022/06/30 00:27:49;;;;;;;3.63;2.40;;;15.40;1.40;;;16.84;100.00;95076.92;647504;216;31596;-79
2022/06/30 00:30:37;;;;;;;1.60;1.50;;;15.30;1.40;;;16.82;100.00;95074.42;649344;216;31530;-79
2022/06/30 00:35:52;;;;;;;2.22;2.03;;;15.30;1.40;;;16.75;100.00;95063.73;646451;216;31830;-78
2022/06/30 00:38:33;;;;;;;2.65;1.98;;;15.30;1.40;;;16.79;100.00;95058.39;620201;226;32025;-78
2022/06/30 00:41:15;;;;;;;2.12;1.73;;;15.30;1.40;;;16.77;100.00;95051.70;647203;216;31515;-77
2022/06/30 00:43:57;;;;;;;2.20;1.60;;;15.40;1.40;;;16.81;100.00;95052.48;646660;216;31773;-76
2022/06/30 00:46:42;;;;;;;2.28;2.08;;;15.40;1.40;;;16.73;100.00;95049.48;647234;216;31614;-76
2022/06/30 00:49:23;;;;;;;3.78;1.58;;;15.30;1.40;;;16.72;100.00;95044.97;646808;216;31603;-76
2022/06/30 00:52:06;;;;;;;2.78;1.60;;;15.30;1.40;;;16.67;100.00;95044.88;644133;216;31630;-76
2022/06/30 00:54:47;;;;;;;2.40;1.70;;;15.30;1.40;;;16.78;100.00;95037.66;647077;216;31613;-76
2022/06/30 00:57:29;;;;;;;1.92;1.75;;;15.40;1.40;;;16.88;100.00;95037.99;647691;216;31605;-76
2022/06/30 01:00:12;;;;;;;2.53;2.28;;;15.60;1.40;;;16.89;100.00;95038.98;619992;226;31842;-76
2022/06/30 01:02:54;;;;;;;2.55;1.83;;;15.50;1.40;;;16.91;100.00;95034.13;646489;216;31576;-76
2022/06/30 01:05:38;;;;;;;2.35;1.30;;;15.50;1.40;;;16.81;100.00;95029.23;620150;226;31940;-76
2022/06/30 01:08:20;;;;;;;1.90;1.40;;;15.30;1.40;;;16.63;100.00;95032.33;644979;216;31481;-76
2022/06/30 01:13:49;;;;;;;1.33;1.23;;;14.90;1.40;;;16.31;100.00;95031.46;646127;212;32226;-76
2022/06/30 01:16:30;;;;;;;1.50;1.40;;;14.80;1.40;;;16.23;100.00;95026.34;647184;216;31700;-76
2022/06/30 01:19:12;;;;;;;1.83;1.20;;;14.80;1.40;;;16.26;100.00;95027.09;646592;216;31499;-76
2022/06/30 01:22:01;;;;;;;2.08;1.30;;;14.90;1.40;;;16.27;100.00;95025.45;649679;216;31574;-79
2022/06/30 01:24:49;;;;;;;2.08;1.40;;;14.90;1.40;;;16.30;100.00;95024.36;646469;216;31711;-76
2022/06/30 01:27:36;;;;;;;3.35;1.10;;;14.90;1.40;;;16.42;100.00;95029.79;649284;216;31672;-80
2022/06/30 01:30:20;;;;;;;1.42;1.33;;;15.00;1.40;;;16.49;100.00;95029.89;647577;216;31798;-77
2022/06/30 01:35:50;;;;;;;1.52;1.42;;;15.20;1.40;;;16.46;100.00;95026.88;647185;212;31649;-76
2022/06/30 01:38:36;;;;;;;1.80;1.70;;;15.40;1.40;;;16.73;100.00;95025.22;617853;226;43178;-77
2022/06/30 01:41:17;;;;;;;1.50;1.30;;;15.60;1.40;;;16.81;100.00;95029.98;646931;216;31552;-76
2022/06/30 01:43:59;;;;;;;1.70;1.40;;;15.70;1.40;;;16.87;100.00;95032.36;642371;217;31800;-77
2022/06/30 01:46:47;;;;;;;2.10;1.27;;;15.60;1.40;;;16.56;100.00;95036.00;619684;226;31883;-77
2022/06/30 01:49:31;;;;;;;2.07;1.43;;;15.10;1.40;;;16.44;100.00;95037.30;626908;226;22560;-79
2022/06/30 01:54:56;;;;;;;1.50;1.33;;;15.10;1.40;;;16.54;100.00;95037.04;631512;222;32008;-77
2022/06/30 01:57:39;;;;;;;1.30;1.20;;;15.20;1.40;;;16.51;100.00;95035.44;649207;212;31530;-79
2022/06/30 02:00:27;;;;;;;2.12;1.50;;;15.20;1.40;;;16.51;100.00;95041.14;647633;216;31540;-78
2022/06/30 02:03:11;;;;;;;2.60;1.92;;;15.20;1.40;;;16.53;100.00;95039.34;649662;212;32091;-79
2022/06/30 02:05:53;;;;;;;1.20;1.10;;;15.20;1.40;;;16.47;100.00;95041.79;622718;226;32573;-80
2022/06/30 02:08:40;;;;;;;1.62;1.40;;;15.10;1.40;;;16.52;100.00;95041.64;619617;226;32371;-78
2022/06/30 02:11:22;;;;;;;2.08;1.52;;;15.30;1.40;;;16.49;100.00;95042.41;647445;216;31572;-78
2022/06/30 02:14:04;;;;;;;4.30;2.60;;;15.20;1.40;;;16.51;100.00;95050.30;619804;226;31948;-77
2022/06/30 02:16:46;;;;;;;4.60;1.60;;;15.20;1.40;;;16.44;100.00;95045.52;646657;216;31537;-78
2022/06/30 02:19:27;;;;;;;1.20;1.10;;;15.00;1.40;;;16.38;100.00;95047.77;620284;222;31930;-77
2022/06/30 02:22:09;;;;;;;1.60;1.20;;;15.00;1.40;;;16.37;100.00;95049.31;647487;216;42897;-77
2022/06/30 02:24:51;;;;;;;3.00;2.13;;;14.90;1.40;;;16.26;100.00;95048.39;645646;216;31592;-77
2022/06/30 02:27:33;;;;;;;1.50;1.40;;;14.80;1.40;;;16.19;100.00;95053.91;619262;226;31881;-77
2022/06/30 02:30:14;;;;;;;1.10;1.00;;;14.70;1.40;;;16.12;100.00;95053.56;642993;217;31630;-77
2022/06/30 02:32:58;;;;;;;1.55;0.95;;;14.60;1.40;;;15.97;100.00;95054.50;621992;222;31866;-79
2022/06/30 02:35:57;;;;;;;6.32;1.40;;;14.40;1.40;;;15.87;100.00;95054.58;642562;216;31572;-77
2022/06/30 02:38:39;;;;;;;3.10;1.90;;;14.40;1.40;;;15.75;100.00;95054.48;647928;216;32065;-77
2022/06/30 02:41:21;;;;;;;1.67;1.30;;;14.40;1.40;;;15.70;100.00;95054.59;647208;216;31745;-78
2022/06/30 02:44:02;;;;;;;4.60;1.10;;;14.40;1.40;;;15.77;100.00;95057.73;646627;212;31584;-77
2022/06/30 02:46:44;;;;;;;1.90;1.80;;;14.50;1.40;;;15.66;100.00;95058.00;620056;226;31813;-77
2022/06/30 02:49:26;;;;;;;4.65;1.67;;;14.30;1.40;;;15.62;100.00;95058.36;646755;216;31527;-77
2022/06/30 02:52:08;;;;;;;1.40;1.30;;;14.30;1.40;;;15.62;100.00;95059.25;647477;216;31674;-76
2022/06/30 02:54:49;;;;;;;2.67;1.17;;;14.20;1.40;;;15.59;100.00;95059.04;645261;212;42939;-76
2022/06/30 02:57:31;;;;;;;1.80;0.93;;;14.20;1.40;;;15.61;100.00;95066.11;619270;222;32657;-76
2022/06/30 03:00:13;;;;;;;1.45;1.27;;;14.20;1.40;;;15.62;100.00;95063.44;619778;226;32582;-76
2022/06/30 03:05:33;;;;;;;1.55;1.45;;;14.20;1.40;;;15.59;100.00;95065.97;647032;216;31560;-77
2022/06/30 03:08:15;;;;;;;1.42;1.33;;;14.20;1.40;;;15.57;100.00;95065.56;646944;216;31527;-76
2022/06/30 03:10:56;;;;;;;1.25;1.15;;;14.20;1.40;;;15.52;100.00;95067.78;645714;216;31509;-77
2022/06/30 03:13:38;;;;;;;1.42;1.20;;;14.20;1.40;;;15.63;100.00;95066.02;646976;216;31500;-78
2022/06/30 03:19:06;;;;;;;1.80;1.20;;;14.30;1.40;;;15.56;100.00;95066.74;647546;216;31883;-78
2022/06/30 03:21:49;;;;;;;1.90;1.12;;;14.20;1.40;;;15.65;100.00;95063.09;647318;216;31580;-77
2022/06/30 03:24:30;;;;;;;1.40;1.30;;;14.30;1.40;;;15.59;100.00;95064.62;647820;216;31519;-77
2022/06/30 03:27:12;;;;;;;1.48;1.23;;;14.30;1.40;;;15.51;100.00;95067.66;646393;212;31495;-77
2022/06/30 03:29:53;;;;;;;1.73;1.43;;;14.10;1.40;;;15.37;100.00;95066.67;647743;216;31555;-77
2022/06/30 03:32:35;;;;;;;5.22;1.80;;;14.00;1.40;;;15.34;100.00;95070.30;646995;216;32086;-78
2022/06/30 03:35:54;;;;;;;1.23;1.15;;;14.00;1.40;;;15.29;100.00;95068.25;647901;216;31805;-77
2022/06/30 03:38:35;;;;;;;2.60;1.52;;;14.00;1.40;;;15.47;100.00;95069.35;646371;216;32107;-76
2022/06/30 03:41:17;;;;;;;2.08;1.42;;;14.40;1.40;;;15.57;100.00;95067.94;645666;216;31615;-76
2022/06/30 03:43:59;;;;;;;1.30;1.00;;;14.50;1.40;;;15.60;100.00;95072.30;647415;216;31550;-76
2022/06/30 03:46:41;;;;;;;1.98;1.10;;;14.50;1.40;;;15.61;100.00;95076.64;647692;212;31529;-76
2022/06/30 03:49:23;;;;;;;3.00;1.70;;;14.40;1.40;;;15.66;100.00;95081.62;646806;216;31547;-76
2022/06/30 03:52:05;;;;;;;4.07;1.40;;;14.50;1.40;;;15.72;100.00;95085.67;647304;216;31550;-76
2022/06/30 03:54:47;;;;;;;1.60;1.10;;;14.60;1.40;;;15.78;100.00;95078.66;646023;216;31553;-75
2022/06/30 03:57:29;;;;;;;1.50;1.40;;;14.70;1.40;;;15.83;100.00;95076.91;646892;216;32073;-76
2022/06/30 04:00:11;;;;;;;1.67;1.27;;;14.60;1.40;;;15.86;100.00;95071.55;646872;216;31562;-76
2022/06/30 04:02:52;;;;;;;1.95;1.25;;;14.60;1.40;;;15.92;100.00;95072.20;642932;215;31642;-76
2022/06/30 04:05:34;;;;;;;3.45;1.12;;;14.60;1.40;;;15.96;100.00;95075.17;645764;216;31749;-76
2022/06/30 04:08:17;;;;;;;2.25;1.60;;;14.70;1.40;;;16.09;100.00;95076.94;646727;216;31498;-77
2022/06/30 04:10:59;;;;;;;1.63;1.33;;;14.90;1.40;;;16.20;100.00;95077.42;616356;226;31862;-77
2022/06/30 04:13:42;;;;;;;1.67;1.40;;;15.10;1.40;;;16.32;100.00;95076.48;648840;213;31593;-79
2022/06/30 04:16:30;;;;;;;1.52;1.20;;;15.20;1.40;;;16.40;100.00;95074.32;619654;226;32380;-77
2022/06/30 04:19:13;;;;;;;1.90;1.50;;;15.30;1.40;;;16.41;100.00;95074.41;619360;222;43238;-77
2022/06/30 04:21:55;;;;;;;4.00;1.90;;;15.40;1.40;;;16.50;100.00;95072.01;646216;216;32031;-76
2022/06/30 04:24:36;;;;;;;1.63;1.30;;;15.50;1.40;;;16.59;100.00;95073.45;645795;212;31519;-77
2022/06/30 04:27:21;;;;;;;2.05;1.77;;;15.70;1.40;;;16.68;100.00;95073.38;646461;216;32074;-77
2022/06/30 04:30:03;;;;;;;2.25;1.98;;;15.80;1.40;;;16.76;100.00;95071.25;646669;216;31681;-77
2022/06/30 04:32:46;;;;;;;1.85;1.67;;;15.80;1.40;;;16.82;100.00;95073.72;647059;216;31589;-77
2022/06/30 04:35:51;;;;;;;1.60;1.50;;;15.90;1.40;;;16.91;100.00;95075.09;646925;216;31602;-76
2022/06/30 04:38:32;;;;;;;1.97;1.83;;;16.00;1.40;;;17.03;100.00;95077.09;645721;216;31516;-76
2022/06/30 04:44:02;;;;;;;1.30;1.20;;;16.10;1.40;;;17.19;100.00;95079.64;617732;226;32110;-76
2022/06/30 04:46:43;;;;;;;1.80;1.70;;;16.30;1.40;;;17.29;100.00;95074.79;618991;226;32048;-77
2022/06/30 04:49:25;;;;;;;2.60;2.40;;;16.40;1.40;;;17.37;100.00;95077.32;647245;212;31539;-77
2022/06/30 04:53:16;;;;;;;3.23;1.50;;;16.60;1.40;;;17.46;100.00;95076.37;643186;216;42314;-79
2022/06/30 04:56:04;;;;;;;2.55;2.05;;;16.60;1.40;;;17.56;100.00;95076.39;648012;216;32086;-77
2022/06/30 04:58:46;;;;;;;2.00;1.30;;;16.70;1.40;;;17.66;100.00;95076.16;618637;222;31981;-76
2022/06/30 05:01:31;;;;;;;2.30;1.70;;;16.70;1.40;;;17.76;100.00;95075.26;646552;216;31492;-78
2022/06/30 05:04:13;;;;;;;1.23;1.13;;;16.90;1.40;;;17.87;100.00;95069.25;619384;222;31913;-77
2022/06/30 05:06:56;;;;;;;1.83;1.67;;;17.00;1.40;;;18.03;100.00;95070.06;647247;216;32524;-75
2022/06/30 05:09:38;;;;;;;2.70;1.85;;;17.10;1.40;;;18.24;100.00;95075.28;647012;212;32070;-76
2022/06/30 05:12:20;;;;;;;1.90;1.62;;;17.20;1.40;;;18.39;100.00;95071.47;647161;212;31665;-74
2022/06/30 05:15:06;;;;;;;1.42;1.33;;;17.30;1.40;;;18.46;100.00;95069.94;646194;212;31719;-75
2022/06/30 05:17:47;;;;;;;1.62;1.52;;;17.30;1.40;;;18.53;100.00;95067.02;647231;216;31940;-75
2022/06/30 05:20:30;;;;;;;2.80;1.85;;;17.50;1.40;;;18.60;100.00;95063.27;647610;212;31632;-76
2022/06/30 05:23:11;;;;;;;5.62;1.65;;;17.60;1.40;;;18.68;100.00;95063.58;646978;212;31897;-74
2022/06/30 05:28:40;;;;;;;1.40;1.17;;;17.80;1.40;;;18.95;100.00;95061.70;647196;216;31596;-75
2022/06/30 05:31:22;;;;;;;1.98;1.35;;;17.90;1.40;;;19.03;100.00;95061.01;646283;216;41844;-76
2022/06/30 05:35:51;;;;;;;1.52;1.42;;;17.90;1.40;;;19.07;100.00;95063.25;620150;222;32120;-76
2022/06/30 05:38:33;;;;;;;1.90;1.70;;;18.00;1.40;;;19.28;100.00;95069.17;647426;212;31793;-76
2022/06/30 05:41:14;;;;;;;1.55;1.45;;;18.20;1.40;;;19.42;100.00;95072.55;646104;212;31590;-76
2022/06/30 05:43:56;;;;;;;2.22;1.60;;;18.20;1.40;;;19.52;100.00;95072.05;646183;212;42737;-75
2022/06/30 05:46:38;;;;;;;1.67;1.58;;;18.30;1.40;;;19.54;100.00;95075.22;646990;212;31497;-75
2022/06/30 05:49:19;;;;;;;2.47;2.28;;;18.50;1.40;;;19.60;100.00;95070.95;650769;216;42140;-76
2022/06/30 05:52:03;;;;;;;2.67;1.90;;;18.50;1.40;;;19.74;100.00;95067.80;646291;216;31534;-75
2022/06/30 05:54:47;;;;;;;3.60;2.08;;;18.60;1.40;;;19.91;100.00;95066.78;647827;212;31514;-75
2022/06/30 05:57:29;;;;;;;1.50;1.30;;;18.70;1.40;;;19.98;100.00;95068.64;646760;212;31648;-75
2022/06/30 06:00:17;;;;;;;1.67;1.58;;;18.90;1.40;;;20.13;100.00;95065.58;643881;216;31583;-77
2022/06/30 06:03:05;;;;;;;3.28;2.40;;;18.90;1.40;;;20.23;100.00;95065.41;619465;226;32105;-75
2022/06/30 06:05:47;;;;;;;5.40;2.10;;;19.00;1.40;;;20.33;100.00;95070.36;637387;218;32189;-74
2022/06/30 06:08:29;;;;;;;2.00;1.90;;;19.10;1.40;;;20.42;100.00;95066.40;649695;212;31516;-75
2022/06/30 06:11:11;;;;;;;1.50;1.30;;;19.20;1.40;;;20.43;100.00;95071.84;620597;226;32007;-76
2022/06/30 06:13:52;;;;;;;2.70;1.90;;;19.30;1.40;;;20.57;100.00;95076.48;645686;212;42752;-75
2022/06/30 06:16:34;;;;;;;2.17;1.70;;;19.30;1.40;;;20.68;100.00;95077.77;648185;212;31634;-76
2022/06/30 06:19:16;;;;;;;3.22;1.83;;;19.30;1.40;;;20.80;100.00;95076.61;620245;226;32052;-75
2022/06/30 06:22:04;;;;;;;2.37;1.60;;;19.40;1.40;;;20.82;100.00;95079.43;618588;222;31955;-76
2022/06/30 06:24:46;;;;;;;2.47;2.28;;;19.60;1.40;;;20.86;100.00;95087.01;648545;216;32257;-77
2022/06/30 06:27:34;;;;;;;2.80;2.37;;;19.70;1.40;;;21.08;100.00;95083.59;647119;212;32124;-75
2022/06/30 06:30:15;;;;;;;2.20;1.97;;;19.80;1.40;;;21.17;100.00;95085.05;649259;212;32342;-75
2022/06/30 06:32:57;;;;;;;2.37;2.17;;;19.90;1.40;;;21.26;100.00;95087.53;620235;222;31914;-75
2022/06/30 06:35:50;;;;;;;2.30;2.10;;;19.90;1.40;;;21.31;100.00;95082.95;648067;216;31649;-75
2022/06/30 06:38:32;;;;;;;2.80;2.00;;;20.20;1.40;;;21.48;100.00;95083.25;648075;212;31615;-75
2022/06/30 06:41:21;;;;;;;2.00;1.80;;;20.30;1.40;;;21.54;100.00;95082.36;649255;212;31593;-76
2022/06/30 06:44:09;;;;;;;2.30;1.70;;;20.40;1.40;;;21.71;100.00;95078.87;646358;216;31551;-75
2022/06/30 06:46:50;;;;;;;2.70;1.77;;;20.60;1.40;;;21.94;100.00;95076.55;618043;222;31980;-74
2022/06/30 06:49:32;;;;;;;2.80;2.27;;;20.70;1.40;;;21.98;100.00;95083.49;645894;216;31708;-75
2022/06/30 06:52:14;;;;;;;3.65;1.50;;;20.80;1.40;;;22.17;100.00;95078.55;646863;216;31732;-75
2022/06/30 06:57:36;;;;;;;2.08;1.80;;;20.90;1.40;;;22.49;100.00;95071.09;648751;212;31551;-76
2022/06/30 07:00:23;;;;;;;3.35;1.90;;;21.00;1.40;;;22.52;100.00;95075.46;618019;226;32156;-75
2022/06/30 07:03:05;;;;;;;3.60;2.40;;;21.30;1.40;;;22.74;100.00;95076.94;645953;216;31868;-75
2022/06/30 07:05:47;;;;;;;2.55;2.25;;;21.40;1.40;;;22.87;100.00;95071.63;619157;226;32454;-76
2022/06/30 07:08:28;;;;;;;2.05;1.70;;;21.50;1.40;;;22.89;100.00;95064.25;619675;226;32199;-75
2022/06/30 07:11:10;;;;;;;2.60;2.00;;;21.70;1.40;;;22.92;100.00;95062.95;647225;212;31580;-75
2022/06/30 07:13:52;;;;;;;3.35;2.50;;;21.70;1.40;;;23.11;100.00;95064.66;646690;216;31855;-75
2022/06/30 07:16:36;;;;;;;2.20;2.00;;;21.90;1.40;;;23.37;100.00;95063.48;646991;212;32883;-75
2022/06/30 07:19:21;;;;;;;2.03;1.83;;;22.10;1.40;;;23.57;100.00;95068.06;645616;212;31684;-75
2022/06/30 07:22:03;;;;;;;3.22;1.92;;;22.10;1.40;;;23.61;100.00;95062.31;647435;216;42198;-75
2022/06/30 07:24:45;;;;;;;2.80;2.28;;;22.10;1.40;;;23.63;100.00;95066.77;646651;216;31776;-75
2022/06/30 07:27:27;;;;;;;4.45;2.20;;;22.30;1.40;;;23.57;100.00;95066.90;646773;212;31548;-75
2022/06/30 07:30:11;;;;;;;3.17;2.10;;;22.30;1.40;;;23.63;100.00;95057.37;648041;212;31777;-75
2022/06/30 07:32:51;;;;;;;5.80;2.10;;;22.20;1.40;;;23.97;100.00;95056.49;646253;216;31572;-75
2022/06/30 07:35:51;;;;;;;5.13;2.00;;;22.70;1.40;;;24.00;100.00;95053.95;619841;226;32062;-75
2022/06/30 07:38:34;;;;;;;2.95;1.95;;;23.00;1.40;;;24.29;100.00;95053.45;646761;212;31838;-75
2022/06/30 07:41:14;;;;;;;3.65;2.30;;;23.00;1.40;;;24.23;100.00;95059.25;647264;212;31598;-75
2022/06/30 07:43:56;;;;;;;4.90;1.83;;;23.10;1.40;;;24.38;100.00;95054.62;647189;212;42192;-75
2022/06/30 07:46:37;;;;;;;3.12;1.92;;;23.10;1.40;;;24.39;100.00;95060.61;647470;216;31701;-75
2022/06/30 07:49:19;;;;;;;4.25;2.10;;;23.30;1.40;;;24.48;100.00;95062.37;646384;212;31569;-76
2022/06/30 07:52:01;;;;;;;2.00;1.90;;;23.30;1.40;;;24.26;100.00;95062.13;619435;226;31867;-75
2022/06/30 07:54:43;;;;;;;1.90;1.80;;;23.40;1.40;;;24.32;100.00;95055.16;647803;216;31558;-75
2022/06/30 07:57:26;;;;;;;2.00;1.75;;;23.20;1.40;;;24.59;100.00;95060.05;646477;212;31567;-75
2022/06/30 08:00:13;;;;;;;2.30;1.90;;;23.40;1.40;;;24.70;100.00;95056.00;646904;216;32079;-77
2022/06/30 08:03:01;;;;;;;2.40;1.90;;;23.50;1.40;;;24.96;100.00;95055.16;647593;212;31936;-75
2022/06/30 08:08:20;;;;;;;3.40;1.90;;;24.00;1.40;;;25.20;100.00;95058.11;619984;226;32228;-75
2022/06/30 08:11:01;;;;;;;3.78;2.30;;;23.80;1.40;;;25.27;100.00;95056.19;647814;212;31700;-75
2022/06/30 08:13:43;;;;;;;4.60;2.50;;;23.90;1.40;;;25.23;100.00;95050.72;646352;216;31570;-75
2022/06/30 08:16:28;;;;;;;2.28;2.00;;;24.10;1.40;;;25.60;100.00;95051.09;646002;212;31611;-75
2022/06/30 08:19:09;;;;;;;2.03;1.90;;;24.50;1.40;;;25.81;100.00;95042.59;647729;216;31598;-75
2022/06/30 08:21:51;;;;;;;2.72;1.90;;;24.50;1.40;;;25.84;100.00;95035.65;646532;212;31705;-77
2022/06/30 08:24:36;;;;;;;4.18;2.37;;;24.70;1.40;;;25.85;100.00;95039.87;646013;216;31729;-76
2022/06/30 08:27:18;;;;;;;2.28;2.08;;;24.90;1.40;;;26.13;100.00;95036.44;619585;222;32009;-76
2022/06/30 08:29:59;;;;;;;3.37;2.37;;;25.10;1.40;;;25.86;100.00;95038.38;646849;216;31548;-75
2022/06/30 08:35:54;;;;;;;3.70;1.98;;;25.00;1.40;;;25.68;100.00;95029.98;646002;216;33068;-76
2022/06/30 08:38:37;;;;;;;3.40;2.40;;;24.70;1.40;;;25.94;100.00;95036.73;647293;212;42293;-75
2022/06/30 08:44:06;;;;;;;2.70;1.55;;;24.80;1.40;;;26.10;100.00;95028.64;647025;216;31647;-75
2022/06/30 08:46:47;;;;;;;2.57;2.10;;;25.20;1.40;;;26.42;100.00;95025.31;646568;216;33557;-75
2022/06/30 08:49:32;;;;;;;2.70;2.20;;;25.60;1.40;;;26.79;100.00;95021.92;619182;226;32466;-75
2022/06/30 08:52:14;;;;;;;2.20;2.00;;;25.60;1.40;;;26.66;100.00;95025.73;644689;216;31803;-76
2022/06/30 08:54:56;;;;;;;2.25;2.05;;;25.70;1.40;;;26.91;100.00;95022.75;647023;212;31782;-76
2022/06/30 08:57:37;;;;;;;2.90;2.20;;;26.00;1.40;;;26.70;98.74;95020.27;646531;216;31567;-75
2022/06/30 09:00:19;;;;;;;3.00;1.40;;;25.50;1.40;;;26.82;94.54;95017.06;646822;216;31543;-75
2022/06/30 09:03:01;;;;;;;2.83;2.20;;;25.60;1.40;;;26.88;100.00;95016.02;647216;216;31637;-75
2022/06/30 09:05:42;;;;;;;3.72;2.50;;;26.00;1.40;;;27.25;100.00;95016.83;646982;216;31619;-77
2022/06/30 09:08:26;;;;;;;3.20;2.17;;;26.40;1.40;;;27.90;99.98;95010.00;647084;216;42163;-76
2022/06/30 09:11:06;;;;;;;2.80;1.90;;;27.00;1.40;;;28.42;93.88;95013.89;646535;212;31534;-76
2022/06/30 09:13:49;;;;;;;3.40;2.30;;;27.00;1.40;;;28.32;89.90;95016.75;645351;212;31530;-75
2022/06/30 09:16:31;;;;;;;2.30;2.05;;;27.10;1.40;;;28.24;91.79;95011.67;646220;216;31580;-75
2022/06/30 09:19:13;;;;;;;3.40;2.67;;;26.70;1.40;;;28.80;94.54;95005.80;647596;216;42263;-76
2022/06/30 09:24:28;;;;;;;3.42;2.10;;;27.40;1.40;;;28.50;88.55;95005.04;646609;212;31529;-75
2022/06/30 09:27:21;;;;;;;4.53;2.33;;;27.40;1.40;;;29.50;88.04;94998.84;646475;212;32066;-75
2022/06/30 09:30:09;;;;;;;2.12;1.92;;;28.30;1.40;;;30.02;80.79;95001.13;646813;216;31656;-75
2022/06/30 09:35:51;;;;;;;2.70;2.10;;;33.50;1.40;;;31.41;71.29;94999.35;619643;226;31959;-75
2022/06/30 09:38:33;;;;;;;3.08;2.30;;;32.30;1.40;;;31.48;77.27;95005.33;645901;216;31611;-76
2022/06/30 09:41:14;;;;;;;2.85;2.50;;;32.70;1.40;;;32.29;70.18;95004.02;647046;212;31739;-76
2022/06/30 09:43:56;;;;;;;11.20;8.18;;;32.90;1.40;;;33.91;67.41;94996.52;647407;216;31744;-75
2022/06/30 09:46:41;;;;;;;2.03;1.90;;;33.90;1.40;;;33.26;67.91;95002.36;646752;216;42509;-75
2022/06/30 09:49:34;;;;;;;2.90;2.12;;;33.40;1.40;;;32.64;67.16;94999.11;647347;212;31614;-76
2022/06/30 09:52:20;;;;;;;2.92;2.62;;;32.20;1.40;;;35.13;68.63;94991.11;648548;216;31697;-76
2022/06/30 09:55:06;;;;;;;2.50;2.30;;;34.20;1.40;;;36.04;56.01;94986.41;646982;213;31597;-76
2022/06/30 09:57:47;;;;;;;2.60;2.40;;;34.90;1.40;;;35.77;57.09;94991.75;646896;212;31588;-77
2022/06/30 10:00:28;;;;;;;3.70;2.70;;;33.60;1.40;;;36.76;54.82;94990.23;647670;216;31619;-76
2022/06/30 10:03:10;;;;;;;3.35;1.95;;;33.70;1.40;;;35.08;57.15;94991.94;646227;216;32114;-77
2022/06/30 10:05:52;;;;;;;2.53;2.35;;;32.40;1.40;;;33.62;58.93;94987.02;646683;212;32721;-76
2022/06/30 10:08:33;;;;;;;4.10;2.20;;;32.60;1.40;;;34.46;56.85;94987.64;646549;216;32122;-76
2022/06/30 10:11:15;;;;;;;2.50;2.30;;;33.20;1.40;;;33.26;58.39;94988.91;619174;222;32032;-76
2022/06/30 10:14:01;;;;;;;2.60;2.40;;;32.30;1.40;;;34.70;63.79;94981.36;648241;216;31549;-75
2022/06/30 10:19:20;;;;;;;2.90;2.45;;;28.20;1.40;;;32.02;62.76;94980.48;646885;216;31584;-74
2022/06/30 10:22:02;;;;;;;3.10;2.50;;;28.80;1.40;;;31.71;71.08;94980.90;647193;212;31688;-74
2022/06/30 10:24:45;;;;;;;4.90;2.65;;;29.30;1.40;;;32.74;66.36;94975.10;647110;212;31679;-73
2022/06/30 10:27:26;;;;;;;2.90;2.40;;;30.00;1.40;;;31.57;68.14;94979.63;646222;212;31668;-73
2022/06/30 10:30:11;;;;;;;2.53;2.20;;;29.60;1.40;;;32.34;69.48;94977.80;648375;212;31566;-73
2022/06/30 10:36:22;;;;;;;2.75;2.55;;;30.80;1.40;;;33.19;65.07;94965.26;647173;216;31634;-73
2022/06/30 10:39:05;;;;;;;2.40;2.10;;;30.50;1.40;;;33.60;64.15;94971.96;646498;216;31603;-73
2022/06/30 10:41:46;;;;;;;2.62;2.10;;;30.50;1.40;;;32.20;64.28;94969.72;645841;216;42214;-73
2022/06/30 10:44:29;;;;;;;2.50;2.30;;;30.10;1.40;;;32.64;64.12;94962.41;632715;221;32013;-73
2022/06/30 10:47:10;;;;;;;3.35;2.70;;;30.30;1.40;;;33.15;65.36;94960.24;618959;226;31924;-73
2022/06/30 10:49:51;;;;;;;2.50;2.17;;;30.70;1.40;;;33.22;65.66;94956.45;620186;226;42714;-72
2022/06/30 10:52:33;;;;;;;3.83;1.90;;;30.80;1.40;;;32.51;64.69;94962.53;646899;212;31654;-73
2022/06/30 10:55:15;;;;;;;3.17;2.20;;;30.40;1.40;;;33.30;63.26;94955.06;647706;216;31553;-73
2022/06/30 10:58:01;;;;;;;2.78;2.20;;;30.70;1.40;;;33.79;62.98;94950.53;646730;216;31770;-72
2022/06/30 11:00:50;;;;;;;2.80;2.17;;;31.10;1.40;;;33.32;60.66;94947.36;646733;212;31617;-73
2022/06/30 11:06:15;;;;;;;2.60;2.40;;;31.10;1.40;;;33.63;62.88;94940.66;645613;216;31634;-73
2022/06/30 11:08:58;;;;;;;6.07;2.58;;;31.00;1.40;;;34.07;60.29;94940.41;647448;216;31708;-73
2022/06/30 11:11:42;;;;;;;2.50;2.30;;;31.40;1.40;;;34.10;59.36;94940.13;646702;216;31589;-75
2022/06/30 11:16:58;;;;;;;2.03;1.90;;;33.50;1.40;;;37.38;53.16;94923.79;619592;222;32020;-75
2022/06/30 11:19:40;;;;;;;2.50;2.10;;;34.00;1.40;;;38.84;47.92;94924.37;646868;212;42344;-75
2022/06/30 11:22:22;;;;;;;3.83;2.70;;;34.30;1.40;;;39.39;48.65;94921.23;646799;212;43060;-76
2022/06/30 11:25:06;;;;;;;3.10;2.20;;;34.10;1.40;;;39.41;48.37;94924.25;646238;216;31509;-76
2022/06/30 11:27:48;;;;;;;2.80;2.30;;;34.20;1.40;;;40.21;48.18;94916.27;619032;226;31979;-75
2022/06/30 11:30:32;;;;;;;2.90;2.40;;;34.30;1.40;;;39.96;46.27;94914.72;646832;216;31824;-76
2022/06/30 11:35:51;;;;;;;2.08;1.87;;;32.70;1.40;;;37.01;49.51;94917.36;646668;216;31705;-75
2022/06/30 11:43:55;;;;;;;2.10;2.00;;;32.90;1.40;;;35.78;47.83;94916.25;647209;216;31551;-76
2022/06/30 11:46:58;;;;;;;1.90;1.80;;;32.10;1.40;;;35.12;48.53;94917.53;646023;212;31671;-76
2022/06/30 11:49:54;;;;;;;2.13;1.70;;;31.50;1.40;;;37.46;48.02;94907.26;647302;216;31532;-76
2022/06/30 11:52:37;;;;;;;2.27;2.00;;;33.10;1.40;;;39.08;44.31;94897.70;643733;212;32293;-76
2022/06/30 11:55:19;;;;;;;2.23;2.03;;;33.30;1.40;;;40.29;42.40;94885.66;647335;216;31527;-76
2022/06/30 11:58:01;;;;;;;4.37;2.00;;;33.90;1.40;;;39.40;45.00;94893.17;645615;212;31567;-76
2022/06/30 12:00:42;;;;;;;1.90;1.80;;;34.20;1.40;;;40.73;40.13;94889.04;647848;216;31567;-76
2022/06/30 12:03:27;;;;;;;2.47;2.00;;;35.10;1.40;;;41.81;42.53;94893.90;647055;216;31632;-76
2022/06/30 12:06:10;;;;;;;2.70;2.30;;;34.20;1.40;;;42.33;40.69;94891.80;620290;226;32066;-75
2022/06/30 12:08:50;;;;;;;2.57;1.90;;;34.70;1.40;;;40.26;38.96;94879.98;646601;212;31579;-76
2022/06/30 12:11:32;;;;;;;2.60;1.80;;;34.00;1.40;;;38.71;41.98;94878.21;646295;216;31556;-76
2022/06/30 12:14:14;;;;;;;1.87;1.67;;;33.30;1.40;;;39.90;40.84;94873.86;618964;226;32015;-76
2022/06/30 12:16:55;;;;;;;1.83;1.73;;;33.40;1.40;;;40.84;41.59;94875.53;646425;216;31522;-76
2022/06/30 12:19:38;;;;;;;2.92;1.80;;;33.70;1.40;;;40.81;38.87;94876.81;646220;212;31539;-76
2022/06/30 12:22:19;;;;;;;2.73;1.90;;;34.10;1.40;;;38.94;39.50;94875.46;646437;216;31530;-75
2022/06/30 12:25:00;;;;;;;2.93;1.70;;;33.20;1.40;;;39.18;41.14;94870.37;645640;212;31682;-76
2022/06/30 12:30:21;;;;;;;3.15;2.40;;;33.60;1.40;;;43.48;39.00;94858.70;646747;212;31583;-76